Time;durP1;ratioP1;P1;durP2;ratioP2;P2;SDS_P1;SDS_P2;PMS_P1;PMS_P2;Temp;Humidity;BMP_temperature;BMP_pressure;BME280_temperature;BME280_humidity;BME280_pressure;Samples;Min_cycle;Max_cycle;Signal;HPM_P1;HPM_P2
2023/01/03 00:00:53;;;;;;;1.30;1.20;;;;;;;;;;5032374;28;20813;-76
2023/01/03 00:03:21;;;;;;;2.13;1.30;;;;;;;;;;5032461;28;20449;-76
2023/01/03 00:05:49;;;;;;;1.60;1.50;;;;;;;;;;5032554;28;20450;-77
2023/01/03 00:08:16;;;;;;;1.40;1.40;;;;;;;;;;5032019;28;20513;-77
2023/01/03 00:10:43;;;;;;;2.17;1.40;;;;;;;;;;5032634;28;20553;-77
2023/01/03 00:13:09;;;;;;;1.27;1.27;;;;;;;;;;5032522;28;20450;-76
2023/01/03 00:15:37;;;;;;;1.20;1.20;;;;;;;;;;5032300;28;21258;-77
2023/01/03 00:18:04;;;;;;;1.43;1.20;;;;;;;;;;5032061;28;20472;-76
2023/01/03 00:20:33;;;;;;;1.50;1.40;;;;;;;;;;5032384;28;20446;-77
2023/01/03 00:23:00;;;;;;;1.40;1.30;;;;;;;;;;5031871;28;20500;-76
2023/01/03 00:25:28;;;;;;;1.27;1.27;;;;;;;;;;5032450;28;20449;-76
2023/01/03 00:27:55;;;;;;;1.57;1.10;;;;;;;;;;5031798;28;20494;-76
2023/01/03 00:30:22;;;;;;;1.27;1.10;;;;;;;;;;5031873;28;21212;-76
2023/01/03 00:32:49;;;;;;;1.10;1.00;;;;;;;;;;5031886;28;21106;-76
2023/01/03 00:35:16;;;;;;;1.20;1.20;;;;;;;;;;5032024;28;20498;-76
2023/01/03 00:37:44;;;;;;;1.53;1.27;;;;;;;;;;5032073;28;20462;-77
2023/01/03 00:40:12;;;;;;;1.17;1.17;;;;;;;;;;5032088;28;20449;-76
2023/01/03 00:45:20;;;;;;;1.00;1.00;;;;;;;;;;5031291;28;20422;-76
2023/01/03 00:47:47;;;;;;;1.20;1.20;;;;;;;;;;5043546;28;20489;-76
2023/01/03 00:50:14;;;;;;;0.90;0.90;;;;;;;;;;5051367;28;20453;-77
2023/01/03 00:52:41;;;;;;;1.20;1.10;;;;;;;;;;5051353;28;20438;-77
2023/01/03 00:55:10;;;;;;;1.40;1.40;;;;;;;;;;5051151;28;20437;-77
2023/01/03 00:57:37;;;;;;;1.03;1.03;;;;;;;;;;5051536;28;20476;-76
2023/01/03 01:00:05;;;;;;;0.83;0.83;;;;;;;;;;5051442;28;20476;-76
2023/01/03 01:02:32;;;;;;;1.20;1.20;;;;;;;;;;5051452;28;20472;-76
2023/01/03 01:04:59;;;;;;;1.10;1.10;;;;;;;;;;5051416;28;20464;-77
2023/01/03 01:07:26;;;;;;;1.00;1.00;;;;;;;;;;5050885;28;21098;-77
2023/01/03 01:09:53;;;;;;;2.03;1.70;;;;;;;;;;5051268;28;20441;-76
2023/01/03 01:12:21;;;;;;;3.47;2.80;;;;;;;;;;5051187;28;20452;-77
2023/01/03 01:14:48;;;;;;;1.37;1.37;;;;;;;;;;5050919;28;20445;-76
2023/01/03 01:17:15;;;;;;;1.80;1.70;;;;;;;;;;5050868;28;20523;-77
2023/01/03 01:19:43;;;;;;;1.47;1.37;;;;;;;;;;5050724;28;20441;-76
2023/01/03 01:22:11;;;;;;;1.27;1.17;;;;;;;;;;5050577;28;20967;-77
2023/01/03 01:24:38;;;;;;;2.70;1.77;;;;;;;;;;5050849;28;20441;-76
2023/01/03 01:27:05;;;;;;;1.50;1.40;;;;;;;;;;5061787;28;20457;-76
2023/01/03 01:29:34;;;;;;;2.03;1.07;;;;;;;;;;5070939;28;20476;-76
2023/01/03 01:32:01;;;;;;;1.23;1.20;;;;;;;;;;5070650;28;20449;-77
2023/01/03 01:34:28;;;;;;;1.57;1.50;;;;;;;;;;5070346;28;20494;-76
2023/01/03 01:36:56;;;;;;;1.10;1.10;;;;;;;;;;5070430;28;20439;-77
2023/01/03 01:39:23;;;;;;;1.40;1.40;;;;;;;;;;5070972;28;20441;-77
2023/01/03 01:44:43;;;;;;;1.07;1.03;;;;;;;;;;5072702;28;20405;-76
2023/01/03 01:47:13;;;;;;;1.63;1.53;;;;;;;;;;5070854;28;20491;-76
2023/01/03 01:49:40;;;;;;;1.60;1.50;;;;;;;;;;5070612;28;20472;-77
2023/01/03 01:52:07;;;;;;;1.43;1.30;;;;;;;;;;5070968;28;20445;-76
2023/01/03 01:54:35;;;;;;;1.00;1.00;;;;;;;;;;5071325;28;20443;-76
2023/01/03 01:57:02;;;;;;;1.33;1.33;;;;;;;;;;5073523;28;20452;-76
2023/01/03 01:59:29;;;;;;;1.30;1.30;;;;;;;;;;5074336;28;20448;-76
2023/01/03 02:01:57;;;;;;;1.20;1.20;;;;;;;;;;5062011;28;20459;-77
2023/01/03 02:04:26;;;;;;;1.10;1.10;;;;;;;;;;5052735;28;20925;-76
2023/01/03 02:06:53;;;;;;;1.10;1.10;;;;;;;;;;5051269;28;20433;-76
2023/01/03 02:09:20;;;;;;;1.60;1.20;;;;;;;;;;5050562;28;20477;-76
2023/01/03 02:13:04;;;;;;;1.27;1.17;;;;;;;;;;5050495;28;20438;-77
2023/01/03 02:14:45;;;;;;;1.33;1.33;;;;;;;;;;5049962;28;20445;-76
2023/01/03 02:17:16;;;;;;;1.10;1.10;;;;;;;;;;5050650;28;20430;-76
2023/01/03 02:19:50;;;;;;;1.20;1.20;;;;;;;;;;5050449;28;20422;-76
2023/01/03 02:22:23;;;;;;;0.93;0.93;;;;;;;;;;5050734;28;20508;-76
2023/01/03 02:25:07;;;;;;;1.20;1.20;;;;;;;;;;5050346;28;20434;-79
2023/01/03 02:27:47;;;;;;;1.20;1.10;;;;;;;;;;5049907;28;20566;-77
2023/01/03 02:30:28;;;;;;;1.20;1.20;;;;;;;;;;5052114;28;20436;-77
2023/01/03 02:32:57;;;;;;;1.10;1.00;;;;;;;;;;5054287;28;20429;-76
2023/01/03 02:35:26;;;;;;;1.20;1.10;;;;;;;;;;5054540;28;20441;-77
2023/01/03 02:37:56;;;;;;;1.63;1.20;;;;;;;;;;5054682;28;20456;-76
2023/01/03 02:40:25;;;;;;;1.60;1.10;;;;;;;;;;5054432;28;20448;-77
2023/01/03 02:43:01;;;;;;;1.30;1.30;;;;;;;;;;5053884;28;20440;-76
2023/01/03 02:45:36;;;;;;;1.37;1.10;;;;;;;;;;5054204;28;20431;-76
2023/01/03 02:48:06;;;;;;;1.30;1.23;;;;;;;;;;5054137;28;20529;-76
2023/01/03 02:50:39;;;;;;;2.13;1.40;;;;;;;;;;5054590;28;20452;-77
2023/01/03 02:53:09;;;;;;;1.33;1.30;;;;;;;;;;5034190;28;20427;-76
2023/01/03 02:55:37;;;;;;;1.40;1.30;;;;;;;;;;5034358;28;20442;-76
2023/01/03 02:58:07;;;;;;;1.50;1.40;;;;;;;;;;5034262;28;20467;-77
2023/01/03 03:00:40;;;;;;;1.00;1.00;;;;;;;;;;5033816;28;20476;-76
2023/01/03 03:03:11;;;;;;;1.30;1.10;;;;;;;;;;5034269;28;20461;-76
2023/01/03 03:05:40;;;;;;;1.23;1.13;;;;;;;;;;5033951;28;20442;-77
2023/01/03 03:08:08;;;;;;;1.20;1.20;;;;;;;;;;5033757;28;20478;-77
2023/01/03 03:13:23;;;;;;;1.20;1.10;;;;;;;;;;5033874;28;20402;-77
2023/01/03 03:15:55;;;;;;;1.50;1.40;;;;;;;;;;5035236;28;20533;-76
2023/01/03 03:18:24;;;;;;;1.10;1.10;;;;;;;;;;5034002;28;20469;-76
2023/01/03 03:26:26;;;;;;;1.40;1.30;;;;;;;;;;5036271;28;20793;-76
2023/01/03 03:28:54;;;;;;;1.90;1.33;;;;;;;;;;5034887;28;20490;-77
2023/01/03 03:31:25;;;;;;;1.53;1.20;;;;;;;;;;5033329;28;20474;-77
2023/01/03 03:33:54;;;;;;;1.17;1.17;;;;;;;;;;5033115;28;20836;-77
2023/01/03 03:36:26;;;;;;;1.30;1.30;;;;;;;;;;5033373;28;20445;-76
2023/01/03 03:38:53;;;;;;;1.13;1.10;;;;;;;;;;5032775;28;20828;-77
2023/01/03 03:47:05;;;;;;;1.27;1.27;;;;;;;;;;5033110;28;20899;-77
2023/01/03 03:49:37;;;;;;;1.20;1.10;;;;;;;;;;5032965;28;20476;-77
2023/01/03 03:52:05;;;;;;;1.33;1.33;;;;;;;;;;5033126;28;20462;-77
2023/01/03 03:54:34;;;;;;;1.50;1.40;;;;;;;;;;5032776;28;20493;-76
2023/01/03 03:57:03;;;;;;;2.60;1.60;;;;;;;;;;5032750;28;20442;-76
2023/01/03 03:59:31;;;;;;;1.40;1.40;;;;;;;;;;5032568;28;20441;-76
2023/01/03 04:01:59;;;;;;;3.30;1.77;;;;;;;;;;5032792;28;20454;-76
2023/01/03 04:04:32;;;;;;;1.50;1.40;;;;;;;;;;5032743;28;20446;-77
2023/01/03 04:07:01;;;;;;;1.67;1.57;;;;;;;;;;5032588;28;21063;-77
2023/01/03 04:09:28;;;;;;;2.40;1.53;;;;;;;;;;5032352;28;20488;-78
2023/01/03 04:11:55;;;;;;;1.87;1.73;;;;;;;;;;5032585;28;21080;-76
2023/01/03 04:14:22;;;;;;;1.80;1.70;;;;;;;;;;5032625;28;20454;-76
2023/01/03 04:16:49;;;;;;;1.60;1.60;;;;;;;;;;5032692;28;20450;-77
2023/01/03 04:19:16;;;;;;;1.70;1.60;;;;;;;;;;5032559;28;20473;-76
2023/01/03 04:21:44;;;;;;;2.00;1.90;;;;;;;;;;5032604;28;20512;-76
2023/01/03 04:24:11;;;;;;;1.50;1.50;;;;;;;;;;5032398;28;20454;-77
2023/01/03 04:26:38;;;;;;;1.90;1.80;;;;;;;;;;5032167;28;20465;-77
2023/01/03 04:29:05;;;;;;;1.50;1.50;;;;;;;;;;5032087;28;20523;-76
2023/01/03 04:31:32;;;;;;;1.97;1.87;;;;;;;;;;5032355;28;20793;-76
2023/01/03 04:33:59;;;;;;;1.50;1.40;;;;;;;;;;5037382;28;20430;-77
2023/01/03 04:36:26;;;;;;;1.93;1.83;;;;;;;;;;5044058;28;20433;-76
2023/01/03 04:38:55;;;;;;;2.30;2.10;;;;;;;;;;5050338;28;20474;-77
2023/01/03 04:41:22;;;;;;;1.50;1.50;;;;;;;;;;5052864;28;21040;-77
2023/01/03 04:44:03;;;;;;;2.00;1.90;;;;;;;;;;5042708;28;20447;-76
2023/01/03 04:46:31;;;;;;;2.70;2.17;;;;;;;;;;5033772;28;20906;-76
2023/01/03 04:48:58;;;;;;;2.23;2.13;;;;;;;;;;5034024;28;21027;-77
2023/01/03 04:51:25;;;;;;;1.70;1.60;;;;;;;;;;5034499;28;20438;-76
2023/01/03 04:53:52;;;;;;;7.00;1.80;;;;;;;;;;5031693;28;20899;-76
2023/01/03 04:56:25;;;;;;;1.87;1.63;;;;;;;;;;5032774;28;20942;-76
2023/01/03 04:58:52;;;;;;;2.13;2.03;;;;;;;;;;5034860;28;20462;-76
2023/01/03 05:01:19;;;;;;;1.93;1.83;;;;;;;;;;5032218;28;20447;-76
2023/01/03 05:03:46;;;;;;;2.87;1.90;;;;;;;;;;5032392;28;20457;-77
2023/01/03 05:06:13;;;;;;;2.07;1.70;;;;;;;;;;5032288;28;20457;-77
2023/01/03 05:08:40;;;;;;;2.33;2.17;;;;;;;;;;5031828;28;20573;-76
2023/01/03 05:11:08;;;;;;;1.80;1.70;;;;;;;;;;5031752;28;20450;-78
2023/01/03 05:13:36;;;;;;;1.83;1.73;;;;;;;;;;5031700;28;20473;-76
2023/01/03 05:16:07;;;;;;;2.03;1.77;;;;;;;;;;5031481;28;20458;-77
2023/01/03 05:18:34;;;;;;;1.80;1.70;;;;;;;;;;5031171;28;20995;-77
2023/01/03 05:26:49;;;;;;;1.57;1.47;;;;;;;;;;4989120;28;20483;-76
2023/01/03 05:29:19;;;;;;;1.83;1.73;;;;;;;;;;5021074;28;20496;-76
2023/01/03 05:31:46;;;;;;;2.10;1.90;;;;;;;;;;5030730;28;21091;-77
2023/01/03 05:34:13;;;;;;;2.10;1.53;;;;;;;;;;5031019;28;20454;-77
2023/01/03 05:36:40;;;;;;;2.07;1.97;;;;;;;;;;5030976;28;20968;-77
2023/01/03 05:39:08;;;;;;;1.80;1.70;;;;;;;;;;5030729;28;20482;-77
2023/01/03 05:44:20;;;;;;;2.40;1.97;;;;;;;;;;5030269;28;20422;-76
2023/01/03 05:46:48;;;;;;;2.07;1.97;;;;;;;;;;5030644;28;20450;-77
2023/01/03 05:49:15;;;;;;;1.73;1.73;;;;;;;;;;5030704;28;20483;-78
2023/01/03 05:51:42;;;;;;;2.10;2.00;;;;;;;;;;5031036;28;20442;-77
2023/01/03 05:54:10;;;;;;;2.33;2.10;;;;;;;;;;5030385;28;20504;-76
2023/01/03 05:56:37;;;;;;;2.77;2.20;;;;;;;;;;5030695;28;20461;-77
2023/01/03 05:59:06;;;;;;;2.90;1.90;;;;;;;;;;5030706;28;20466;-76
2023/01/03 06:01:34;;;;;;;2.20;2.10;;;;;;;;;;5030223;28;20450;-76
2023/01/03 06:04:01;;;;;;;3.23;2.10;;;;;;;;;;5030166;28;20454;-77
2023/01/03 06:06:29;;;;;;;3.00;1.77;;;;;;;;;;5030380;28;20451;-77
2023/01/03 06:08:56;;;;;;;2.03;1.93;;;;;;;;;;5030114;28;20848;-77
2023/01/03 06:11:23;;;;;;;2.53;2.23;;;;;;;;;;5030737;28;20457;-77
2023/01/03 06:13:50;;;;;;;3.83;2.50;;;;;;;;;;5030199;28;20476;-77
2023/01/03 06:19:06;;;;;;;2.30;2.10;;;;;;;;;;5030790;28;21027;-77
2023/01/03 06:21:33;;;;;;;2.10;2.00;;;;;;;;;;5031403;28;20454;-77
2023/01/03 06:24:00;;;;;;;2.10;1.90;;;;;;;;;;5031186;28;20442;-76
2023/01/03 06:26:27;;;;;;;2.23;2.13;;;;;;;;;;5032362;28;20446;-77
2023/01/03 06:28:54;;;;;;;2.97;2.00;;;;;;;;;;5033933;28;20489;-75
2023/01/03 06:31:21;;;;;;;3.37;3.07;;;;;;;;;;5035011;28;20447;-76
2023/01/03 06:33:48;;;;;;;2.67;2.47;;;;;;;;;;5040891;28;20447;-77
2023/01/03 06:36:18;;;;;;;8.17;2.30;;;;;;;;;;5042698;28;20453;-75
2023/01/03 06:38:45;;;;;;;2.23;2.13;;;;;;;;;;5042346;28;20470;-77
2023/01/03 06:41:13;;;;;;;2.60;2.13;;;;;;;;;;5041750;28;20496;-75
2023/01/03 06:43:40;;;;;;;4.10;2.20;;;;;;;;;;5041932;28;20527;-77
2023/01/03 06:54:26;;;;;;;8.13;7.20;;;;;;;;;;5030482;28;20973;-76
2023/01/03 06:56:54;;;;;;;5.63;5.10;;;;;;;;;;5030735;28;20553;-77
2023/01/03 06:59:21;;;;;;;3.97;3.67;;;;;;;;;;5030108;28;20973;-75
2023/01/03 07:01:49;;;;;;;2.73;2.50;;;;;;;;;;5030631;28;20466;-76
2023/01/03 07:04:17;;;;;;;2.90;2.70;;;;;;;;;;5030198;28;20528;-77
2023/01/03 07:06:45;;;;;;;4.83;4.13;;;;;;;;;;5029980;28;20478;-77
2023/01/03 07:09:12;;;;;;;3.60;2.97;;;;;;;;;;5029680;28;20482;-77
2023/01/03 07:11:40;;;;;;;5.13;3.57;;;;;;;;;;5030240;28;20442;-77
2023/01/03 07:14:07;;;;;;;15.23;12.10;;;;;;;;;;5029988;28;20468;-76
2023/01/03 07:16:35;;;;;;;5.80;5.20;;;;;;;;;;5030744;28;20941;-77
2023/01/03 07:19:02;;;;;;;5.70;4.47;;;;;;;;;;5033853;28;20829;-76
2023/01/03 07:21:31;;;;;;;2.93;2.73;;;;;;;;;;5033652;28;20812;-77
2023/01/03 07:24:01;;;;;;;3.00;2.70;;;;;;;;;;5033555;28;20450;-77
2023/01/03 07:26:29;;;;;;;6.67;2.80;;;;;;;;;;5035848;28;20536;-76
2023/01/03 07:28:56;;;;;;;4.47;2.90;;;;;;;;;;5035609;28;20470;-77
2023/01/03 07:31:23;;;;;;;7.53;3.23;;;;;;;;;;5034115;28;20449;-77
2023/01/03 07:33:51;;;;;;;3.43;3.13;;;;;;;;;;5033902;28;20461;-76
2023/01/03 07:36:19;;;;;;;3.57;3.27;;;;;;;;;;5033232;28;21116;-77
2023/01/03 07:38:47;;;;;;;6.93;5.10;;;;;;;;;;5033666;28;20466;-77
2023/01/03 07:41:16;;;;;;;8.63;5.13;;;;;;;;;;5034827;28;20450;-75
2023/01/03 07:43:43;;;;;;;4.87;3.67;;;;;;;;;;5034712;28;20462;-76
2023/01/03 07:46:12;;;;;;;4.13;3.43;;;;;;;;;;5034279;28;20496;-77
2023/01/03 07:48:39;;;;;;;4.77;3.13;;;;;;;;;;5035685;28;20466;-76
2023/01/03 07:51:07;;;;;;;2.70;2.50;;;;;;;;;;5034238;28;21010;-77
2023/01/03 07:53:34;;;;;;;2.63;2.53;;;;;;;;;;5032962;28;20453;-76
2023/01/03 07:56:03;;;;;;;4.20;3.00;;;;;;;;;;5033295;28;20450;-77
2023/01/03 07:58:31;;;;;;;3.27;3.07;;;;;;;;;;5033005;28;20466;-77
2023/01/03 08:01:02;;;;;;;3.43;3.20;;;;;;;;;;5033242;28;20450;-77
2023/01/03 08:03:29;;;;;;;4.70;3.20;;;;;;;;;;5032802;28;20945;-76
2023/01/03 08:06:00;;;;;;;5.23;3.53;;;;;;;;;;5032915;28;20446;-77
2023/01/03 08:08:27;;;;;;;4.33;3.93;;;;;;;;;;5033086;28;20463;-77
2023/01/03 08:13:42;;;;;;;3.40;3.13;;;;;;;;;;5021814;28;20434;-78
2023/01/03 08:16:10;;;;;;;4.10;3.10;;;;;;;;;;5041235;28;20442;-76
2023/01/03 08:18:38;;;;;;;3.90;2.70;;;;;;;;;;5038313;28;20497;-76
2023/01/03 08:21:05;;;;;;;3.97;3.50;;;;;;;;;;5034013;28;20438;-77
2023/01/03 08:23:32;;;;;;;3.70;3.07;;;;;;;;;;5032183;28;20450;-77
2023/01/03 08:26:00;;;;;;;5.23;3.03;;;;;;;;;;5032130;28;20461;-77
2023/01/03 08:28:27;;;;;;;4.20;3.70;;;;;;;;;;5031562;28;20900;-77
2023/01/03 08:30:56;;;;;;;9.43;4.10;;;;;;;;;;5032144;28;20474;-76
2023/01/03 08:33:25;;;;;;;6.90;3.77;;;;;;;;;;5032106;28;20453;-77
2023/01/03 08:35:53;;;;;;;4.73;4.23;;;;;;;;;;5031902;28;20450;-77
2023/01/03 08:38:22;;;;;;;3.93;3.60;;;;;;;;;;5032217;28;20467;-78
2023/01/03 08:40:49;;;;;;;4.67;3.73;;;;;;;;;;5031678;28;20537;-76
2023/01/03 08:43:17;;;;;;;5.17;3.77;;;;;;;;;;5031588;28;20568;-77
2023/01/03 08:45:44;;;;;;;6.60;4.70;;;;;;;;;;5031781;28;20727;-77
2023/01/03 08:48:12;;;;;;;4.57;4.20;;;;;;;;;;5031783;28;20466;-77
2023/01/03 08:50:39;;;;;;;4.77;4.33;;;;;;;;;;5031457;28;20473;-77
2023/01/03 08:53:07;;;;;;;10.00;4.50;;;;;;;;;;5031351;28;20938;-77
2023/01/03 08:55:34;;;;;;;4.77;4.37;;;;;;;;;;5031488;28;20450;-77
2023/01/03 08:58:01;;;;;;;5.00;4.50;;;;;;;;;;5031612;28;20470;-76
2023/01/03 09:00:28;;;;;;;5.57;4.80;;;;;;;;;;5031246;28;20826;-77
2023/01/03 09:02:59;;;;;;;5.20;4.70;;;;;;;;;;5031379;28;20553;-76
2023/01/03 09:05:27;;;;;;;4.80;4.20;;;;;;;;;;5031435;28;20446;-77
2023/01/03 09:07:55;;;;;;;10.10;9.10;;;;;;;;;;5031254;28;20462;-76
2023/01/03 09:10:22;;;;;;;5.10;4.63;;;;;;;;;;5037631;28;20481;-76
2023/01/03 09:12:49;;;;;;;5.53;4.37;;;;;;;;;;5045421;28;20445;-75
2023/01/03 09:15:16;;;;;;;5.07;4.60;;;;;;;;;;5047152;28;20438;-76
2023/01/03 09:17:46;;;;;;;6.07;4.70;;;;;;;;;;5049605;28;20462;-76
2023/01/03 09:20:14;;;;;;;4.90;4.37;;;;;;;;;;5048098;28;20444;-76
2023/01/03 09:22:42;;;;;;;5.30;4.80;;;;;;;;;;5050337;28;20449;-77
2023/01/03 09:25:09;;;;;;;5.43;3.80;;;;;;;;;;5051125;28;20499;-76
2023/01/03 09:27:37;;;;;;;6.07;5.43;;;;;;;;;;5048789;28;20493;-77
2023/01/03 09:30:04;;;;;;;5.93;5.20;;;;;;;;;;5049718;28;20859;-76
2023/01/03 09:32:31;;;;;;;5.37;4.33;;;;;;;;;;5050397;28;20446;-78
2023/01/03 09:34:58;;;;;;;7.00;5.17;;;;;;;;;;5050524;28;20498;-76
2023/01/03 09:37:25;;;;;;;5.57;4.80;;;;;;;;;;5050386;28;20461;-76
2023/01/03 09:39:54;;;;;;;5.77;4.53;;;;;;;;;;5050219;28;20449;-76
2023/01/03 09:45:08;;;;;;;6.70;6.10;;;;;;;;;;5049033;28;20401;-77
2023/01/03 09:47:36;;;;;;;6.07;5.47;;;;;;;;;;5047628;28;20834;-77
2023/01/03 09:50:04;;;;;;;7.37;5.30;;;;;;;;;;5055225;28;20963;-76
2023/01/03 10:03:48;;;;;;;6.10;4.73;;;;;;;;;;5047349;28;20440;-76
2023/01/03 10:06:21;;;;;;;5.23;4.73;;;;;;;;;;5044980;28;20630;-77
2023/01/03 10:08:56;;;;;;;6.20;4.73;;;;;;;;;;5046899;28;20461;-76
2023/01/03 10:11:29;;;;;;;7.00;4.77;;;;;;;;;;5050837;28;20477;-76
2023/01/03 10:14:01;;;;;;;4.87;4.47;;;;;;;;;;5049987;28;20446;-75
2023/01/03 10:16:34;;;;;;;6.30;5.10;;;;;;;;;;5044183;28;20442;-76
2023/01/03 10:19:08;;;;;;;7.00;5.57;;;;;;;;;;5053453;28;20449;-76
2023/01/03 10:21:39;;;;;;;5.53;5.13;;;;;;;;;;5063129;28;20441;-76
2023/01/03 10:24:14;;;;;;;6.20;5.60;;;;;;;;;;5064671;28;20562;-76
2023/01/03 10:26:43;;;;;;;6.57;5.97;;;;;;;;;;5050203;28;20445;-76
2023/01/03 10:29:10;;;;;;;5.70;4.80;;;;;;;;;;5049828;28;20461;-76
2023/01/03 10:31:46;;;;;;;5.53;5.03;;;;;;;;;;5049961;28;20469;-75
2023/01/03 10:34:13;;;;;;;6.80;6.20;;;;;;;;;;5050396;28;20481;-76
2023/01/03 10:36:40;;;;;;;5.60;5.10;;;;;;;;;;5064833;28;20453;-76
2023/01/03 10:39:08;;;;;;;6.43;5.30;;;;;;;;;;5073165;28;20488;-74
2023/01/03 10:41:40;;;;;;;6.27;5.67;;;;;;;;;;5075250;28;20441;-75
2023/01/03 10:44:21;;;;;;;6.20;5.53;;;;;;;;;;5071544;28;20433;-76
2023/01/03 10:46:50;;;;;;;6.73;6.23;;;;;;;;;;5067550;28;20434;-75
2023/01/03 10:49:20;;;;;;;8.33;6.20;;;;;;;;;;5050819;28;20453;-76
2023/01/03 10:51:51;;;;;;;7.03;6.23;;;;;;;;;;5051448;28;20481;-75
2023/01/03 10:54:24;;;;;;;7.03;6.30;;;;;;;;;;5053233;28;20441;-76
2023/01/03 10:56:51;;;;;;;6.53;5.40;;;;;;;;;;5053906;28;20929;-76
2023/01/03 10:59:24;;;;;;;7.20;6.57;;;;;;;;;;5053296;28;20469;-76
2023/01/03 11:01:59;;;;;;;20.80;18.83;;;;;;;;;;5053745;28;20449;-75
2023/01/03 11:04:26;;;;;;;7.90;6.10;;;;;;;;;;5053803;28;20456;-77
2023/01/03 11:06:59;;;;;;;6.67;6.07;;;;;;;;;;5053516;28;20671;-76
2023/01/03 11:09:28;;;;;;;60.97;41.83;;;;;;;;;;5052906;28;20445;-77
2023/01/03 11:12:00;;;;;;;27.87;20.03;;;;;;;;;;5053159;28;20484;-76
2023/01/03 11:14:28;;;;;;;109.77;72.43;;;;;;;;;;5052872;28;20449;-76
2023/01/03 11:16:58;;;;;;;7.17;6.57;;;;;;;;;;5052928;28;20925;-76
2023/01/03 11:19:27;;;;;;;6.17;5.57;;;;;;;;;;5052854;28;20453;-75
2023/01/03 11:21:56;;;;;;;5.90;5.40;;;;;;;;;;5053009;28;20881;-76
2023/01/03 11:24:28;;;;;;;6.40;5.87;;;;;;;;;;5052471;28;20822;-75
2023/01/03 11:27:02;;;;;;;5.40;5.00;;;;;;;;;;5052739;28;20519;-74
2023/01/03 11:29:40;;;;;;;6.13;5.63;;;;;;;;;;5053296;28;20506;-75
2023/01/03 11:32:14;;;;;;;5.80;5.20;;;;;;;;;;5052910;28;20481;-76
2023/01/03 11:34:49;;;;;;;5.50;5.00;;;;;;;;;;5052833;28;20434;-76
2023/01/03 11:37:20;;;;;;;6.17;5.60;;;;;;;;;;5052808;28;20453;-76
2023/01/03 11:39:54;;;;;;;5.43;4.93;;;;;;;;;;5053071;28;20448;-76
2023/01/03 11:42:31;;;;;;;4.50;4.10;;;;;;;;;;5052699;28;20442;-75
2023/01/03 11:45:16;;;;;;;4.10;3.80;;;;;;;;;;5052575;28;20468;-77
2023/01/03 11:47:48;;;;;;;4.23;3.83;;;;;;;;;;5052819;28;20500;-76
2023/01/03 11:50:19;;;;;;;3.93;3.73;;;;;;;;;;5052488;28;20449;-76
2023/01/03 11:52:50;;;;;;;4.20;3.80;;;;;;;;;;5052222;28;20807;-75
2023/01/03 11:55:30;;;;;;;3.97;3.67;;;;;;;;;;5052438;28;20445;-75
2023/01/03 11:58:04;;;;;;;4.07;3.77;;;;;;;;;;5052058;28;20462;-76
2023/01/03 12:00:34;;;;;;;3.60;3.30;;;;;;;;;;5052151;28;20496;-76
2023/01/03 12:03:05;;;;;;;4.40;3.83;;;;;;;;;;5051804;28;20775;-75
2023/01/03 12:05:41;;;;;;;5.03;3.90;;;;;;;;;;5053548;28;20529;-75
2023/01/03 12:08:16;;;;;;;4.07;3.77;;;;;;;;;;5052360;28;20466;-75
2023/01/03 12:10:46;;;;;;;5.63;3.70;;;;;;;;;;5052128;28;20492;-75
2023/01/03 12:13:20;;;;;;;4.47;3.87;;;;;;;;;;5051877;28;20442;-77
2023/01/03 12:15:49;;;;;;;4.33;3.87;;;;;;;;;;5037047;28;20848;-75
2023/01/03 12:18:26;;;;;;;5.37;4.87;;;;;;;;;;5032199;28;20510;-76
2023/01/03 12:20:56;;;;;;;4.23;3.83;;;;;;;;;;5032066;28;20453;-76
2023/01/03 12:23:30;;;;;;;12.73;10.80;;;;;;;;;;5032120;28;20446;-76
2023/01/03 12:25:58;;;;;;;7.00;6.30;;;;;;;;;;5031835;28;20613;-76
2023/01/03 12:28:28;;;;;;;4.40;3.40;;;;;;;;;;5031756;28;20474;-76
2023/01/03 12:30:57;;;;;;;4.53;4.03;;;;;;;;;;5032157;28;21012;-76
2023/01/03 12:33:29;;;;;;;3.67;3.30;;;;;;;;;;5032011;28;20455;-74
2023/01/03 12:35:57;;;;;;;5.03;3.90;;;;;;;;;;5032226;28;20442;-76
2023/01/03 12:38:28;;;;;;;4.83;4.13;;;;;;;;;;5031845;28;20497;-75
2023/01/03 12:40:57;;;;;;;4.20;3.90;;;;;;;;;;5031670;28;20512;-76
2023/01/03 12:43:29;;;;;;;5.27;4.40;;;;;;;;;;5030903;28;20448;-75
2023/01/03 12:45:59;;;;;;;4.47;4.07;;;;;;;;;;5031810;28;20435;-75
2023/01/03 12:48:33;;;;;;;4.07;3.60;;;;;;;;;;5031585;28;20838;-75
2023/01/03 12:51:01;;;;;;;7.13;4.47;;;;;;;;;;5031802;28;20480;-76
2023/01/03 12:53:32;;;;;;;3.57;3.30;;;;;;;;;;5031026;28;20962;-77
2023/01/03 12:56:10;;;;;;;3.07;2.87;;;;;;;;;;5033218;28;20438;-75
2023/01/03 12:58:46;;;;;;;6.67;3.80;;;;;;;;;;5036922;28;20498;-75
2023/01/03 13:01:16;;;;;;;3.63;3.43;;;;;;;;;;5040245;28;20926;-75
2023/01/03 13:03:48;;;;;;;2.90;2.70;;;;;;;;;;5044511;28;20453;-75
2023/01/03 13:06:17;;;;;;;6.90;3.37;;;;;;;;;;5035676;28;20443;-74
2023/01/03 13:08:47;;;;;;;5.07;3.13;;;;;;;;;;5031488;28;20470;-75
2023/01/03 13:11:18;;;;;;;4.87;3.30;;;;;;;;;;5032156;28;20478;-75
2023/01/03 13:13:49;;;;;;;3.23;2.50;;;;;;;;;;5032511;28;20453;-76
2023/01/03 13:16:38;;;;;;;4.13;2.93;;;;;;;;;;5032248;28;20557;-76
2023/01/03 13:19:23;;;;;;;3.53;3.13;;;;;;;;;;5031727;28;20477;-74
2023/01/03 13:22:01;;;;;;;3.03;2.77;;;;;;;;;;5031626;28;20449;-75
2023/01/03 13:24:41;;;;;;;3.40;2.97;;;;;;;;;;5031717;28;20492;-75
2023/01/03 13:27:21;;;;;;;3.63;3.33;;;;;;;;;;5031997;28;20473;-76
2023/01/03 13:29:55;;;;;;;3.70;3.40;;;;;;;;;;5043682;28;20431;-76
2023/01/03 13:32:25;;;;;;;5.73;3.30;;;;;;;;;;5051390;28;20474;-75
2023/01/03 13:35:10;;;;;;;3.60;3.30;;;;;;;;;;5055717;28;20439;-76
2023/01/03 13:37:45;;;;;;;3.60;3.30;;;;;;;;;;5054510;28;20446;-75
2023/01/03 13:40:31;;;;;;;3.97;3.67;;;;;;;;;;5052074;28;20537;-76
2023/01/03 13:43:02;;;;;;;3.40;3.07;;;;;;;;;;5031927;28;20434;-75
2023/01/03 13:45:56;;;;;;;4.90;3.50;;;;;;;;;;5031601;28;20497;-76
2023/01/03 13:48:28;;;;;;;4.23;2.97;;;;;;;;;;5031691;28;20464;-76
2023/01/03 13:51:28;;;;;;;3.00;2.67;;;;;;;;;;5030927;28;20466;-75
2023/01/03 13:53:59;;;;;;;3.13;2.63;;;;;;;;;;5030451;28;20447;-74
2023/01/03 13:56:27;;;;;;;4.20;3.10;;;;;;;;;;5030850;28;20493;-76
2023/01/03 13:58:55;;;;;;;3.43;2.83;;;;;;;;;;5030230;28;20466;-75
2023/01/03 14:01:28;;;;;;;3.70;3.40;;;;;;;;;;5030468;28;20809;-75
2023/01/03 14:04:10;;;;;;;3.20;2.50;;;;;;;;;;5030115;28;20450;-76
2023/01/03 14:06:46;;;;;;;2.40;2.30;;;;;;;;;;5022025;28;20450;-75
2023/01/03 14:09:27;;;;;;;2.87;2.70;;;;;;;;;;5030697;28;20465;-76
2023/01/03 14:12:10;;;;;;;3.30;2.50;;;;;;;;;;5030335;28;20478;-76
2023/01/03 14:14:40;;;;;;;3.03;2.40;;;;;;;;;;5035583;28;20445;-75
2023/01/03 14:17:14;;;;;;;2.90;2.03;;;;;;;;;;5050163;28;20476;-76
2023/01/03 14:19:41;;;;;;;2.33;2.23;;;;;;;;;;5050249;28;20449;-75
2023/01/03 14:22:13;;;;;;;2.50;2.13;;;;;;;;;;5050173;28;20444;-76
2023/01/03 14:24:48;;;;;;;2.37;2.27;;;;;;;;;;5050035;28;20745;-76
2023/01/03 14:27:16;;;;;;;3.17;2.50;;;;;;;;;;5049845;28;20468;-78
2023/01/03 14:29:48;;;;;;;2.40;2.20;;;;;;;;;;5049893;28;20905;-75
2023/01/03 14:32:19;;;;;;;3.13;2.93;;;;;;;;;;5050009;28;20482;-76
2023/01/03 14:34:46;;;;;;;2.83;2.63;;;;;;;;;;5049886;28;20503;-76
2023/01/03 14:37:15;;;;;;;3.23;2.80;;;;;;;;;;5049969;28;20825;-75
2023/01/03 14:39:53;;;;;;;5.83;3.10;;;;;;;;;;5050333;28;20441;-75
2023/01/03 14:42:20;;;;;;;4.47;2.60;;;;;;;;;;5050177;28;20422;-75
2023/01/03 14:44:50;;;;;;;3.50;2.40;;;;;;;;;;5049583;28;20442;-75
2023/01/03 14:47:18;;;;;;;2.70;2.50;;;;;;;;;;5050103;28;20445;-75
2023/01/03 14:49:46;;;;;;;2.83;2.63;;;;;;;;;;5049748;28;21011;-76
2023/01/03 14:52:17;;;;;;;2.80;2.60;;;;;;;;;;5050296;28;20473;-75
2023/01/03 14:54:45;;;;;;;2.60;2.20;;;;;;;;;;5050069;28;20457;-74
2023/01/03 14:57:18;;;;;;;5.50;2.70;;;;;;;;;;5050377;28;20448;-75
2023/01/03 14:59:45;;;;;;;5.13;2.50;;;;;;;;;;5050466;28;20594;-75
2023/01/03 15:02:13;;;;;;;2.77;2.50;;;;;;;;;;5050144;28;20480;-75
2023/01/03 15:04:43;;;;;;;3.67;2.70;;;;;;;;;;5049817;28;20449;-75
2023/01/03 15:07:25;;;;;;;4.20;3.50;;;;;;;;;;5049843;28;20429;-76
2023/01/03 15:10:02;;;;;;;4.03;3.30;;;;;;;;;;5050116;28;20791;-76
2023/01/03 15:12:31;;;;;;;3.20;3.00;;;;;;;;;;5050067;28;20477;-76
2023/01/03 15:14:58;;;;;;;3.30;3.00;;;;;;;;;;5050096;28;20964;-75
2023/01/03 15:17:26;;;;;;;2.60;2.40;;;;;;;;;;5050149;28;20844;-76
2023/01/03 15:19:55;;;;;;;2.80;2.60;;;;;;;;;;5049891;28;20433;-75
2023/01/03 15:22:23;;;;;;;3.70;3.40;;;;;;;;;;5049816;28;20468;-75
2023/01/03 15:24:51;;;;;;;3.77;3.47;;;;;;;;;;5049582;28;20453;-76
2023/01/03 15:27:33;;;;;;;3.63;3.33;;;;;;;;;;5049997;28;20535;-76
2023/01/03 15:30:10;;;;;;;3.10;2.80;;;;;;;;;;5049904;28;20472;-76
2023/01/03 15:32:46;;;;;;;5.83;3.10;;;;;;;;;;5049718;28;20488;-76
2023/01/03 15:35:19;;;;;;;4.50;3.50;;;;;;;;;;5049818;28;20479;-75
2023/01/03 15:37:46;;;;;;;2.63;2.40;;;;;;;;;;5050956;28;20472;-74
2023/01/03 15:40:14;;;;;;;3.47;3.17;;;;;;;;;;5053581;28;20445;-75
2023/01/03 15:45:31;;;;;;;5.80;4.37;;;;;;;;;;5053201;28;20493;-74
2023/01/03 15:48:00;;;;;;;6.50;5.90;;;;;;;;;;5053229;28;20473;-75
2023/01/03 15:50:34;;;;;;;4.70;4.20;;;;;;;;;;5052789;28;20778;-75
2023/01/03 15:53:01;;;;;;;4.83;3.90;;;;;;;;;;5052608;28;20484;-76
2023/01/03 15:55:28;;;;;;;4.67;3.10;;;;;;;;;;5052831;28;20441;-75
2023/01/03 15:57:56;;;;;;;5.00;3.40;;;;;;;;;;5053495;28;20472;-75